Time;durP1;ratioP1;P1;durP2;ratioP2;P2;SDS_P1;SDS_P2;PMS_P1;PMS_P2;Temp;Humidity;BMP_temperature;BMP_pressure;BME280_temperature;BME280_humidity;BME280_pressure;Samples;Min_cycle;Max_cycle;Signal;HPM_P1;HPM_P2
2022/03/26 00:02:46;;;;;;;19.40;11.82;;;19.00;65.20;;;;;;7905623;28;20350;-51
2022/03/26 00:06:32;;;;;;;17.23;11.52;;;19.00;65.30;;;;;;7905674;28;20188;-50
2022/03/26 00:10:18;;;;;;;15.82;11.65;;;19.00;65.20;;;;;;7905287;28;20179;-51
2022/03/26 00:14:03;;;;;;;16.73;11.90;;;19.00;65.40;;;;;;7905414;28;20200;-51
2022/03/26 00:17:49;;;;;;;16.38;11.63;;;19.00;65.40;;;;;;7905453;28;20184;-51
2022/03/26 00:21:34;;;;;;;15.40;11.25;;;18.90;65.30;;;;;;7905022;28;20550;-50
2022/03/26 00:25:20;;;;;;;20.15;12.35;;;19.00;65.40;;;;;;7905304;28;20184;-52
2022/03/26 00:29:06;;;;;;;18.70;12.18;;;18.90;66.20;;;;;;7905153;28;20177;-51
2022/03/26 00:32:52;;;;;;;16.15;12.32;;;18.90;65.40;;;;;;7905446;28;20272;-52
2022/03/26 00:36:38;;;;;;;16.73;11.40;;;18.90;66.20;;;;;;7905487;28;20177;-51
2022/03/26 00:40:23;;;;;;;16.45;11.93;;;18.90;65.40;;;;;;7904916;28;20173;-52
2022/03/26 00:44:09;;;;;;;16.95;12.68;;;18.90;65.40;;;;;;7904653;28;20239;-52
2022/03/26 00:47:55;;;;;;;16.88;12.15;;;18.80;65.40;;;;;;7904579;28;20310;-52
2022/03/26 00:51:41;;;;;;;14.88;11.70;;;18.80;65.40;;;;;;7904035;28;20657;-52
2022/03/26 00:55:27;;;;;;;18.08;11.57;;;18.80;65.50;;;;;;7903399;28;20262;-54
2022/03/26 00:59:13;;;;;;;16.95;11.25;;;18.80;65.60;;;;;;7904008;28;20173;-53
2022/03/26 01:02:58;;;;;;;15.45;11.27;;;18.80;65.50;;;;;;7903976;28;20204;-53
2022/03/26 01:06:44;;;;;;;16.85;11.07;;;18.80;65.50;;;;;;7904033;28;20635;-53
2022/03/26 01:10:29;;;;;;;15.48;10.73;;;18.70;65.50;;;;;;7903596;28;20192;-51
2022/03/26 01:14:15;;;;;;;17.25;10.90;;;18.70;65.50;;;;;;7904027;28;20234;-50
2022/03/26 01:18:00;;;;;;;14.95;10.75;;;18.70;65.50;;;;;;7903739;28;20185;-50
2022/03/26 01:21:46;;;;;;;16.92;10.70;;;18.70;65.50;;;;;;7903218;28;20660;-50
2022/03/26 01:25:32;;;;;;;14.82;10.98;;;18.70;65.50;;;;;;7903558;28;20220;-50
2022/03/26 01:29:18;;;;;;;16.63;11.52;;;18.70;65.60;;;;;;7903061;28;20175;-52
2022/03/26 01:33:04;;;;;;;17.83;11.55;;;18.70;65.60;;;;;;7903257;28;20203;-50
2022/03/26 01:36:49;;;;;;;14.63;10.77;;;18.70;65.60;;;;;;7903027;28;20184;-50
2022/03/26 01:40:36;;;;;;;17.25;11.85;;;18.70;65.60;;;;;;7902727;28;20207;-51
2022/03/26 01:44:21;;;;;;;17.15;11.40;;;18.60;65.50;;;;;;7902774;28;20558;-52
2022/03/26 01:48:07;;;;;;;18.58;11.10;;;18.60;65.50;;;;;;7903130;28;20200;-51
2022/03/26 01:51:52;;;;;;;16.77;11.45;;;18.60;65.50;;;;;;7902296;28;20233;-51
2022/03/26 01:55:38;;;;;;;17.35;11.43;;;18.60;65.50;;;;;;7902845;28;20269;-51
2022/03/26 01:59:24;;;;;;;18.33;11.00;;;18.60;65.50;;;;;;7902496;28;20180;-52
2022/03/26 02:03:10;;;;;;;16.70;11.25;;;18.60;65.50;;;;;;7902596;28;20220;-52
2022/03/26 02:06:55;;;;;;;16.05;11.02;;;18.50;65.60;;;;;;7902527;28;20238;-54
2022/03/26 02:10:41;;;;;;;14.95;11.05;;;18.60;65.60;;;;;;7902050;28;20194;-51
2022/03/26 02:14:26;;;;;;;14.50;10.70;;;18.50;65.50;;;;;;7901926;28;20192;-50
2022/03/26 02:18:12;;;;;;;16.05;11.23;;;18.50;65.50;;;;;;7901821;28;20173;-50
2022/03/26 02:21:58;;;;;;;14.55;10.85;;;18.50;65.50;;;;;;7901287;28;20208;-51
2022/03/26 02:25:45;;;;;;;15.40;11.15;;;18.50;65.50;;;;;;7901651;28;20237;-52
2022/03/26 02:29:30;;;;;;;15.35;10.80;;;18.40;65.50;;;;;;7901250;28;20255;-52
2022/03/26 02:33:16;;;;;;;15.50;10.52;;;18.50;65.50;;;;;;7901435;28;20197;-52
2022/03/26 02:37:01;;;;;;;13.98;10.15;;;18.40;65.50;;;;;;7901210;28;20181;-50
2022/03/26 02:40:47;;;;;;;15.25;11.13;;;18.40;65.40;;;;;;7900998;28;20176;-52
2022/03/26 02:44:32;;;;;;;14.00;10.23;;;18.40;65.50;;;;;;7901060;28;20754;-52
2022/03/26 02:48:18;;;;;;;14.90;10.68;;;18.40;65.60;;;;;;7901473;28;20181;-51
2022/03/26 02:52:04;;;;;;;13.45;10.27;;;18.40;65.60;;;;;;7900548;28;20180;-53
2022/03/26 02:55:52;;;;;;;16.17;10.32;;;18.40;65.60;;;;;;7900796;28;20235;-52
2022/03/26 02:59:38;;;;;;;13.60;9.80;;;18.40;65.60;;;;;;7900691;28;20654;-53
2022/03/26 03:03:23;;;;;;;16.13;10.30;;;18.30;65.50;;;;;;7900622;28;20599;-51
2022/03/26 03:07:09;;;;;;;15.93;10.93;;;18.30;65.50;;;;;;7900610;28;20211;-54
2022/03/26 03:10:54;;;;;;;17.90;10.30;;;18.30;65.50;;;;;;7900378;28;20203;-54
2022/03/26 03:14:39;;;;;;;14.43;10.30;;;18.40;65.60;;;;;;7900774;28;20204;-51
2022/03/26 03:18:25;;;;;;;16.15;10.38;;;18.30;65.50;;;;;;7900306;28;20186;-50
2022/03/26 03:22:10;;;;;;;15.18;10.00;;;18.30;65.70;;;;;;7900208;28;20208;-51
2022/03/26 03:25:56;;;;;;;14.32;10.52;;;18.30;65.70;;;;;;7900934;28;20200;-52
2022/03/26 03:29:41;;;;;;;16.88;9.90;;;18.30;65.70;;;;;;7900319;28;20259;-52
2022/03/26 03:33:27;;;;;;;13.30;10.00;;;18.30;65.70;;;;;;7900608;28;20862;-52
2022/03/26 03:37:13;;;;;;;14.40;9.70;;;18.20;65.60;;;;;;7900217;28;20184;-50
2022/03/26 03:40:58;;;;;;;15.90;10.02;;;18.20;65.70;;;;;;7900460;28;20172;-50
2022/03/26 03:44:44;;;;;;;14.10;9.80;;;18.20;65.70;;;;;;7900055;28;20299;-53
2022/03/26 03:48:29;;;;;;;14.85;10.38;;;18.20;65.70;;;;;;7900090;28;20678;-52
2022/03/26 03:52:15;;;;;;;15.98;10.23;;;18.20;65.70;;;;;;7899573;28;20196;-50
2022/03/26 03:56:00;;;;;;;14.73;10.38;;;18.20;65.70;;;;;;7899847;28;20247;-52
2022/03/26 03:59:46;;;;;;;13.38;9.18;;;18.20;65.70;;;;;;7899654;28;20181;-51
2022/03/26 04:03:32;;;;;;;13.40;10.07;;;18.20;65.70;;;;;;7899909;28;20287;-53
2022/03/26 04:07:17;;;;;;;14.00;9.50;;;18.20;65.80;;;;;;7899732;28;20172;-52
2022/03/26 04:11:03;;;;;;;14.80;10.02;;;18.20;65.80;;;;;;7899474;28;20223;-51
2022/03/26 04:14:48;;;;;;;15.93;9.93;;;18.10;65.70;;;;;;7899650;28;20197;-52
2022/03/26 04:18:34;;;;;;;14.02;9.43;;;18.10;65.70;;;;;;7899626;28;20177;-51
2022/03/26 04:22:19;;;;;;;13.88;9.60;;;18.10;65.80;;;;;;7899177;28;20209;-52
2022/03/26 04:26:06;;;;;;;13.32;9.73;;;18.10;65.80;;;;;;7899480;28;20165;-54
2022/03/26 04:29:51;;;;;;;12.25;9.10;;;18.10;65.80;;;;;;7899760;28;20203;-54
2022/03/26 04:33:37;;;;;;;13.52;9.43;;;18.10;65.80;;;;;;7904962;28;20228;-53
2022/03/26 04:37:22;;;;;;;16.25;9.18;;;18.00;65.80;;;;;;7904823;28;20185;-52
2022/03/26 04:41:08;;;;;;;14.90;9.70;;;18.10;65.80;;;;;;7904618;28;20242;-48
2022/03/26 04:44:54;;;;;;;12.10;8.98;;;18.00;65.80;;;;;;7922217;28;20246;-52
2022/03/26 04:48:39;;;;;;;14.80;9.20;;;18.00;65.80;;;;;;7904649;28;20188;-51
2022/03/26 04:52:25;;;;;;;14.38;9.18;;;18.00;65.80;;;;;;7903173;28;20192;-52
2022/03/26 04:56:10;;;;;;;20.70;9.88;;;18.00;65.80;;;;;;7903494;28;20638;-53
2022/03/26 04:59:56;;;;;;;20.52;9.38;;;18.00;65.80;;;;;;7903402;28;20192;-54
2022/03/26 05:03:42;;;;;;;12.27;8.80;;;18.00;65.90;;;;;;7903485;28;20211;-52
2022/03/26 05:07:45;;;;;;;16.40;9.07;;;18.00;65.80;;;;;;7903408;28;20181;-53
2022/03/26 05:11:31;;;;;;;13.98;8.63;;;18.00;65.80;;;;;;7903898;28;20257;-52
2022/03/26 05:15:21;;;;;;;15.60;9.38;;;18.10;65.80;;;;;;7904233;28;20200;-51
2022/03/26 05:19:07;;;;;;;12.65;8.73;;;18.00;66.70;;;;;;7903933;28;20172;-52
2022/03/26 05:22:52;;;;;;;19.88;8.75;;;18.00;65.80;;;;;;7903427;28;20212;-52
2022/03/26 05:26:38;;;;;;;12.23;7.93;;;18.00;65.80;;;;;;7902897;28;20173;-52
2022/03/26 05:30:24;;;;;;;14.63;9.20;;;18.00;65.80;;;;;;7902820;28;20168;-52
2022/03/26 05:34:09;;;;;;;12.70;9.30;;;18.00;65.60;;;;;;7902955;28;20674;-52
2022/03/26 05:37:55;;;;;;;18.50;9.05;;;18.10;65.60;;;;;;7902925;28;20231;-55
2022/03/26 05:41:41;;;;;;;27.65;8.90;;;18.10;65.70;;;;;;7901955;28;20180;-50
2022/03/26 05:45:26;;;;;;;16.33;8.52;;;18.20;65.50;;;;;;7902459;28;20196;-52
2022/03/26 05:49:12;;;;;;;19.10;9.32;;;18.20;65.80;;;;;;7902011;28;20196;-52
2022/03/26 05:52:57;;;;;;;23.13;10.23;;;18.30;66.00;;;;;;7901854;28;20189;-51
2022/03/26 05:56:51;;;;;;;18.55;9.55;;;18.30;65.10;;;;;;7901493;28;20176;-51
2022/03/26 06:00:37;;;;;;;25.08;9.68;;;18.30;65.30;;;;;;7902303;28;20181;-51
2022/03/26 06:04:27;;;;;;;25.75;9.88;;;18.40;65.60;;;;;;7902280;28;20717;-51
2022/03/26 06:08:12;;;;;;;23.63;9.52;;;18.40;65.70;;;;;;7902078;28;20177;-51
2022/03/26 06:11:58;;;;;;;28.90;10.30;;;18.50;65.90;;;;;;7902231;28;20188;-51
2022/03/26 06:15:43;;;;;;;25.27;9.38;;;18.50;65.80;;;;;;7901894;28;20267;-53
2022/03/26 06:19:29;;;;;;;21.02;9.35;;;18.60;65.80;;;;;;7901689;28;20196;-53
2022/03/26 06:23:14;;;;;;;29.27;9.02;;;18.60;65.80;;;;;;7901898;28;20208;-51
2022/03/26 06:27:01;;;;;;;20.75;8.93;;;18.70;65.80;;;;;;7902394;28;20638;-52
2022/03/26 06:30:47;;;;;;;25.35;9.57;;;18.70;65.80;;;;;;7901244;28;20180;-53
2022/03/26 06:34:32;;;;;;;18.55;8.82;;;18.70;65.70;;;;;;7901341;28;20682;-50
2022/03/26 06:38:18;;;;;;;20.60;9.63;;;18.80;65.60;;;;;;7901263;28;20177;-52
2022/03/26 06:42:04;;;;;;;21.15;9.18;;;18.80;65.70;;;;;;7900865;28;20205;-51
2022/03/26 06:45:49;;;;;;;21.42;9.05;;;18.80;65.50;;;;;;7900868;28;20567;-52
2022/03/26 06:49:35;;;;;;;20.85;9.05;;;18.90;65.50;;;;;;7900605;28;20199;-52
2022/03/26 06:53:20;;;;;;;19.55;9.18;;;18.90;65.40;;;;;;7900001;28;20189;-53
2022/03/26 06:57:06;;;;;;;20.33;9.10;;;18.90;65.40;;;;;;7900956;28;20259;-53
2022/03/26 07:00:52;;;;;;;19.75;8.60;;;19.00;65.40;;;;;;7900649;28;20173;-52
2022/03/26 07:04:38;;;;;;;16.05;7.93;;;19.00;65.30;;;;;;7900326;28;20215;-53
2022/03/26 07:08:23;;;;;;;17.08;8.70;;;19.00;65.30;;;;;;7899219;28;20185;-53
2022/03/26 07:12:09;;;;;;;15.23;8.30;;;19.00;65.20;;;;;;7900291;28;20191;-52
2022/03/26 07:15:55;;;;;;;18.98;8.57;;;19.10;65.10;;;;;;7900209;28;20197;-53
2022/03/26 07:19:40;;;;;;;18.30;8.95;;;19.10;65.20;;;;;;7900203;28;20180;-53
2022/03/26 07:23:27;;;;;;;15.18;8.27;;;19.10;65.10;;;;;;7900230;28;20216;-51
2022/03/26 07:27:12;;;;;;;19.38;9.07;;;19.20;65.00;;;;;;7900297;28;20176;-51
2022/03/26 07:30:58;;;;;;;18.35;8.40;;;19.20;65.00;;;;;;7899978;28;20168;-52
2022/03/26 07:34:43;;;;;;;14.95;7.97;;;19.20;65.00;;;;;;7900197;28;20212;-51
2022/03/26 07:38:29;;;;;;;12.05;7.60;;;19.20;65.00;;;;;;7900166;28;20250;-52
2022/03/26 07:42:14;;;;;;;17.67;8.05;;;19.20;64.90;;;;;;7899783;28;20204;-52
2022/03/26 07:46:00;;;;;;;16.77;7.90;;;19.30;64.90;;;;;;7899950;28;20681;-51
2022/03/26 07:49:46;;;;;;;15.93;8.27;;;19.30;64.90;;;;;;7899683;28;20195;-52
2022/03/26 07:53:31;;;;;;;15.52;8.35;;;19.30;64.80;;;;;;7900101;28;20200;-52
2022/03/26 07:57:17;;;;;;;16.10;8.73;;;19.30;64.70;;;;;;7899898;28;20177;-51
2022/03/26 08:01:02;;;;;;;14.52;8.25;;;19.30;64.70;;;;;;7899674;28;20180;-52
2022/03/26 08:04:48;;;;;;;18.30;8.68;;;19.30;64.70;;;;;;7901785;28;20575;-51
2022/03/26 08:08:34;;;;;;;16.67;8.68;;;19.30;64.70;;;;;;7905832;28;20184;-50
2022/03/26 08:12:19;;;;;;;16.80;9.07;;;19.30;64.60;;;;;;7905246;28;20206;-51
2022/03/26 08:16:07;;;;;;;15.18;8.98;;;19.40;64.60;;;;;;7905502;28;20685;-53
2022/03/26 08:19:53;;;;;;;17.98;8.88;;;19.40;64.60;;;;;;7905086;28;20267;-51
2022/03/26 08:23:38;;;;;;;14.68;8.90;;;19.40;64.50;;;;;;7905083;28;20229;-52
2022/03/26 08:27:24;;;;;;;14.02;9.18;;;19.40;64.50;;;;;;7905149;28;20168;-52
2022/03/26 08:31:10;;;;;;;13.98;8.80;;;19.40;64.30;;;;;;7905268;28;20252;-51
2022/03/26 08:34:56;;;;;;;14.55;9.23;;;19.40;64.30;;;;;;7904989;28;20218;-51
2022/03/26 08:38:44;;;;;;;18.13;9.48;;;19.50;64.40;;;;;;7904775;28;20646;-52
2022/03/26 08:42:29;;;;;;;16.77;9.02;;;19.50;64.50;;;;;;7904207;28;20193;-52
2022/03/26 08:46:16;;;;;;;15.35;8.82;;;19.50;64.30;;;;;;7904602;28;20208;-53
2022/03/26 08:50:01;;;;;;;16.17;8.43;;;19.50;64.20;;;;;;7904215;28;20188;-52
2022/03/26 08:53:47;;;;;;;14.35;8.45;;;19.50;64.20;;;;;;7904245;28;20280;-53
2022/03/26 08:57:32;;;;;;;14.88;9.00;;;19.50;64.20;;;;;;7904192;28;20189;-52
2022/03/26 09:01:18;;;;;;;13.32;8.27;;;19.50;64.20;;;;;;7903835;28;20181;-52
2022/03/26 09:05:07;;;;;;;18.33;9.30;;;19.50;64.20;;;;;;7903969;28;20219;-52
2022/03/26 09:08:52;;;;;;;17.73;8.85;;;19.60;64.30;;;;;;7903923;28;20173;-50
2022/03/26 09:12:38;;;;;;;17.52;9.32;;;19.60;64.40;;;;;;7903474;28;20718;-54
2022/03/26 09:16:23;;;;;;;17.17;8.63;;;19.60;64.20;;;;;;7902983;28;20208;-54
2022/03/26 09:20:10;;;;;;;15.23;8.80;;;19.60;64.40;;;;;;7903540;28;20235;-53
2022/03/26 09:23:55;;;;;;;18.65;9.40;;;19.60;64.20;;;;;;7904040;28;20215;-52
2022/03/26 09:27:41;;;;;;;16.88;8.82;;;19.60;64.30;;;;;;7903647;28;20168;-50
2022/03/26 09:31:26;;;;;;;13.85;8.68;;;19.60;64.20;;;;;;7903287;28;20298;-52
2022/03/26 09:35:13;;;;;;;15.77;8.43;;;19.60;64.20;;;;;;7903412;28;20273;-53
2022/03/26 09:38:59;;;;;;;13.18;8.80;;;19.70;64.20;;;;;;7903176;28;20587;-52
2022/03/26 09:42:45;;;;;;;14.40;8.68;;;19.70;64.30;;;;;;7902454;28;20208;-50
2022/03/26 09:46:32;;;;;;;11.93;8.32;;;19.70;64.10;;;;;;7902820;28;20694;-52
2022/03/26 09:50:19;;;;;;;12.20;8.07;;;19.70;64.10;;;;;;7902459;28;20200;-50
2022/03/26 09:54:05;;;;;;;15.98;7.97;;;19.70;64.30;;;;;;7902734;28;20227;-52
2022/03/26 09:57:52;;;;;;;12.52;7.68;;;19.70;64.10;;;;;;7902742;28;20177;-52
2022/03/26 10:01:37;;;;;;;13.18;8.20;;;19.70;64.20;;;;;;7902449;28;20181;-52
2022/03/26 10:05:31;;;;;;;16.15;9.18;;;19.70;64.10;;;;;;7902057;28;20211;-52
2022/03/26 10:09:39;;;;;;;11.55;7.60;;;19.70;64.10;;;;;;7901898;28;20172;-51
2022/03/26 10:13:39;;;;;;;12.43;7.88;;;19.80;64.20;;;;;;7902010;28;20197;-50
2022/03/26 10:17:27;;;;;;;12.77;7.88;;;19.80;64.30;;;;;;7901855;28;20176;-52
2022/03/26 10:21:20;;;;;;;15.35;8.57;;;19.80;64.10;;;;;;7901525;28;20195;-51
2022/03/26 10:25:08;;;;;;;15.07;8.20;;;19.80;64.20;;;;;;7901379;28;20329;-50
2022/03/26 10:28:56;;;;;;;12.10;7.45;;;19.80;64.10;;;;;;7901468;28;20674;-52
2022/03/26 10:32:49;;;;;;;11.70;8.15;;;19.80;64.30;;;;;;7901174;28;20212;-50
2022/03/26 10:36:58;;;;;;;11.52;7.47;;;19.80;64.10;;;;;;7901600;28;20179;-54
2022/03/26 10:40:44;;;;;;;12.63;7.82;;;19.80;64.20;;;;;;7895550;28;20650;-54
2022/03/26 10:44:30;;;;;;;14.27;8.32;;;19.80;64.10;;;;;;7900889;28;20568;-51
2022/03/26 10:48:26;;;;;;;12.65;7.63;;;19.80;64.20;;;;;;7901012;28;20176;-55
2022/03/26 10:52:16;;;;;;;12.85;7.97;;;19.80;64.10;;;;;;7900641;28;20195;-52
2022/03/26 10:56:03;;;;;;;12.35;7.45;;;19.90;64.30;;;;;;7900998;28;20236;-52
2022/03/26 10:59:51;;;;;;;11.43;7.80;;;19.90;64.10;;;;;;7900947;28;20180;-55
2022/03/26 11:03:36;;;;;;;11.38;6.85;;;19.90;64.10;;;;;;7901078;28;20644;-53
2022/03/26 11:07:23;;;;;;;12.55;7.28;;;19.90;64.20;;;;;;7900866;28;20176;-52
2022/03/26 11:11:10;;;;;;;9.07;6.63;;;19.90;64.30;;;;;;7900548;28;20184;-52
2022/03/26 11:14:58;;;;;;;11.43;7.30;;;19.90;64.40;;;;;;7900535;28;20197;-55
2022/03/26 11:19:02;;;;;;;9.65;6.65;;;20.00;64.20;;;;;;7900576;28;20263;-55
2022/03/26 11:23:21;;;;;;;11.85;7.70;;;19.90;64.10;;;;;;7900520;28;20196;-55
2022/03/26 11:27:34;;;;;;;11.00;7.35;;;19.90;64.10;;;;;;7900495;28;20653;-52
2022/03/26 11:31:34;;;;;;;12.73;7.25;;;19.90;64.10;;;;;;7881604;28;20180;-50
2022/03/26 11:35:20;;;;;;;10.45;7.18;;;20.00;64.20;;;;;;7900108;28;20721;-51
2022/03/26 11:39:16;;;;;;;10.45;6.70;;;19.90;64.20;;;;;;7900938;28;20619;-49
2022/03/26 11:43:01;;;;;;;10.48;6.45;;;20.00;64.20;;;;;;7906327;28;20708;-52
2022/03/26 11:51:15;;;;;;;10.98;7.03;;;20.00;64.20;;;;;;7906461;28;20200;-50
2022/03/26 11:55:15;;;;;;;11.30;6.78;;;20.00;64.20;;;;;;7906203;28;20212;-53
2022/03/26 11:59:06;;;;;;;9.40;5.97;;;20.00;64.20;;;;;;7906247;28;20227;-52
2022/03/26 12:02:52;;;;;;;9.02;5.60;;;20.00;64.30;;;;;;7905817;28;20204;-52
2022/03/26 12:06:56;;;;;;;9.98;6.60;;;20.00;64.10;;;;;;7906101;28;20177;-52
2022/03/26 12:10:43;;;;;;;11.68;6.43;;;20.00;64.00;;;;;;7905740;28;20173;-55
2022/03/26 12:14:29;;;;;;;9.15;6.05;;;20.00;64.00;;;;;;7905504;28;20250;-50
2022/03/26 12:18:14;;;;;;;12.57;6.75;;;20.00;64.20;;;;;;7906025;28;20181;-52
2022/03/26 12:22:20;;;;;;;9.07;5.57;;;20.00;64.00;;;;;;7905307;28;20181;-52
2022/03/26 12:26:07;;;;;;;8.05;6.00;;;20.00;64.10;;;;;;7905503;28;20176;-53
2022/03/26 12:29:54;;;;;;;9.52;6.53;;;20.00;64.20;;;;;;7905189;28;20200;-52
2022/03/26 12:33:49;;;;;;;10.65;6.20;;;20.10;64.30;;;;;;7905345;28;20230;-51
2022/03/26 12:37:36;;;;;;;7.72;5.63;;;20.10;64.20;;;;;;7905409;28;20204;-52
2022/03/26 12:41:22;;;;;;;8.25;6.25;;;20.10;64.00;;;;;;7905329;28;20181;-52
2022/03/26 12:45:16;;;;;;;7.05;5.32;;;20.00;63.80;;;;;;7905182;28;20291;-50
2022/03/26 12:49:16;;;;;;;7.70;5.63;;;20.10;64.00;;;;;;7904572;28;20184;-51
2022/03/26 12:53:07;;;;;;;7.95;5.60;;;20.10;64.00;;;;;;7903219;28;20279;-52
2022/03/26 12:56:53;;;;;;;8.27;6.20;;;20.10;64.00;;;;;;7904389;28;20275;-52
2022/03/26 13:00:39;;;;;;;7.65;5.88;;;20.10;64.20;;;;;;7904181;28;20173;-51
2022/03/26 13:04:25;;;;;;;7.38;5.10;;;20.10;64.20;;;;;;7904037;28;20216;-51
2022/03/26 13:08:11;;;;;;;6.63;5.47;;;20.10;64.30;;;;;;7903988;28;20697;-49
2022/03/26 13:11:57;;;;;;;7.00;5.25;;;20.10;64.30;;;;;;7903899;28;20176;-51
2022/03/26 13:16:00;;;;;;;6.85;5.32;;;20.10;64.20;;;;;;7904312;28;20200;-52
2022/03/26 13:19:46;;;;;;;8.30;5.45;;;20.10;64.20;;;;;;7903419;28;20613;-53
2022/03/26 13:23:31;;;;;;;8.00;5.60;;;20.10;64.00;;;;;;7903212;28;20204;-52
2022/03/26 13:27:18;;;;;;;7.78;5.70;;;20.10;64.00;;;;;;7903499;28;20272;-52
2022/03/26 13:31:21;;;;;;;6.25;5.13;;;20.10;64.00;;;;;;7903516;28;20177;-51
2022/03/26 13:35:07;;;;;;;8.63;5.72;;;20.10;64.10;;;;;;7903807;28;20723;-50
2022/03/26 13:38:53;;;;;;;7.03;5.68;;;20.10;64.00;;;;;;7903231;28;20177;-52
2022/03/26 13:42:40;;;;;;;7.38;5.68;;;20.10;64.10;;;;;;7902598;28;20527;-50
2022/03/26 13:46:26;;;;;;;7.10;5.40;;;20.10;64.20;;;;;;7902780;28;20173;-50
2022/03/26 13:50:15;;;;;;;8.95;5.68;;;20.10;64.00;;;;;;7902346;28;20185;-50
2022/03/26 13:54:03;;;;;;;7.55;5.70;;;20.10;64.10;;;;;;7902505;28;20380;-52
2022/03/26 13:57:49;;;;;;;7.40;5.45;;;20.10;64.00;;;;;;7902607;28;20839;-50
2022/03/26 14:01:39;;;;;;;6.88;5.60;;;20.10;64.00;;;;;;7902093;28;20177;-50
2022/03/26 14:05:28;;;;;;;6.30;5.40;;;20.10;64.00;;;;;;7901992;28;20223;-52
2022/03/26 14:09:18;;;;;;;7.43;5.25;;;20.10;64.00;;;;;;7901948;28;20177;-50
2022/03/26 14:13:08;;;;;;;6.40;4.85;;;20.10;64.10;;;;;;7901984;28;20575;-49
2022/03/26 14:16:54;;;;;;;10.23;5.20;;;20.10;64.20;;;;;;7902255;28;20176;-50
2022/03/26 14:20:39;;;;;;;5.45;4.45;;;20.10;64.20;;;;;;7902031;28;20191;-50
2022/03/26 14:24:25;;;;;;;7.28;5.03;;;20.10;64.10;;;;;;7902435;28;20214;-50
2022/03/26 14:28:12;;;;;;;7.18;4.70;;;20.10;64.20;;;;;;7901736;28;20651;-50
2022/03/26 14:31:58;;;;;;;6.07;4.85;;;20.10;64.30;;;;;;7901341;28;20538;-48
2022/03/26 14:35:47;;;;;;;7.50;4.90;;;20.10;64.20;;;;;;7901569;28;20251;-49
2022/03/26 14:39:32;;;;;;;7.35;4.70;;;20.10;64.20;;;;;;7901175;28;20222;-50
2022/03/26 14:43:18;;;;;;;7.20;4.80;;;20.10;64.30;;;;;;7901080;28;20208;-50
2022/03/26 14:47:04;;;;;;;8.75;4.40;;;20.00;64.50;;;;;;7901100;28;20165;-50
2022/03/26 14:50:49;;;;;;;5.72;4.53;;;20.10;64.60;;;;;;7900648;28;20199;-49
2022/03/26 14:54:35;;;;;;;9.02;4.97;;;20.10;64.40;;;;;;7900920;28;20188;-50
2022/03/26 14:58:20;;;;;;;5.78;4.35;;;20.10;64.50;;;;;;7900772;28;20651;-50
2022/03/26 15:02:07;;;;;;;6.20;4.20;;;20.10;64.60;;;;;;7900596;28;20175;-51
2022/03/26 15:05:52;;;;;;;7.72;4.43;;;20.00;64.50;;;;;;7900528;28;20318;-50
2022/03/26 15:09:38;;;;;;;5.78;4.32;;;20.00;64.50;;;;;;7900346;28;20161;-50
2022/03/26 15:13:24;;;;;;;5.82;4.35;;;20.10;64.50;;;;;;7899883;28;20538;-49
2022/03/26 15:17:09;;;;;;;7.18;4.40;;;20.00;64.60;;;;;;7900444;28;20185;-49
2022/03/26 15:20:54;;;;;;;7.28;4.30;;;20.00;64.60;;;;;;7900129;28;20176;-52
2022/03/26 15:24:40;;;;;;;4.65;4.03;;;20.00;64.60;;;;;;7900783;28;20208;-50
2022/03/26 15:28:25;;;;;;;5.72;4.30;;;20.00;64.70;;;;;;7900339;28;20177;-49
2022/03/26 15:32:11;;;;;;;6.93;3.83;;;20.00;64.70;;;;;;7900177;28;20180;-47
2022/03/26 15:35:56;;;;;;;4.85;3.72;;;20.00;64.80;;;;;;7900228;28;20196;-48
2022/03/26 15:39:42;;;;;;;10.52;4.43;;;19.90;64.90;;;;;;7900016;28;20206;-51
2022/03/26 15:43:28;;;;;;;7.70;4.28;;;19.90;64.80;;;;;;7900323;28;20212;-50
2022/03/26 15:47:13;;;;;;;7.28;4.07;;;19.90;64.80;;;;;;7900060;28;20173;-48
2022/03/26 15:50:59;;;;;;;6.80;3.80;;;19.90;64.90;;;;;;7899741;28;20192;-47
2022/03/26 15:54:44;;;;;;;4.85;3.78;;;19.90;65.00;;;;;;7900102;28;20279;-52
2022/03/26 15:58:30;;;;;;;7.05;4.32;;;19.80;65.00;;;;;;7900170;28;20307;-47
2022/03/26 16:02:15;;;;;;;5.13;3.80;;;19.90;65.00;;;;;;7900133;28;20655;-47
2022/03/26 16:06:02;;;;;;;4.75;3.80;;;19.80;65.00;;;;;;7899893;28;20192;-51
2022/03/26 16:09:48;;;;;;;4.65;3.83;;;19.80;65.00;;;;;;7899451;28;20176;-49
2022/03/26 16:13:33;;;;;;;7.38;3.80;;;19.80;65.20;;;;;;7899658;28;20197;-49
2022/03/26 16:17:19;;;;;;;4.22;3.70;;;19.80;65.10;;;;;;7899539;28;20208;-50
2022/03/26 16:21:04;;;;;;;5.68;3.92;;;19.80;65.20;;;;;;7899400;28;20616;-50
2022/03/26 16:24:50;;;;;;;6.35;3.90;;;19.80;65.20;;;;;;7900099;28;20217;-52
2022/03/26 16:28:35;;;;;;;5.38;3.60;;;19.70;65.20;;;;;;7905169;28;20168;-50
2022/03/26 16:32:21;;;;;;;5.28;4.20;;;19.70;65.20;;;;;;7904638;28;20194;-50
2022/03/26 16:36:07;;;;;;;4.20;3.80;;;19.70;65.20;;;;;;7904960;28;20670;-48
2022/03/26 16:39:53;;;;;;;6.90;4.03;;;19.70;65.20;;;;;;7904844;28;20180;-50
2022/03/26 16:43:38;;;;;;;6.35;3.90;;;19.70;65.20;;;;;;7904689;28;20220;-48
2022/03/26 16:47:24;;;;;;;5.38;4.05;;;19.70;65.30;;;;;;7904759;28;20231;-50
2022/03/26 16:51:09;;;;;;;4.50;3.65;;;19.70;65.40;;;;;;7904170;28;20245;-50
2022/03/26 16:54:55;;;;;;;5.03;3.78;;;19.70;65.30;;;;;;7904316;28;20280;-47
2022/03/26 16:58:40;;;;;;;4.32;3.90;;;19.70;65.40;;;;;;7904153;28;20184;-48
2022/03/26 17:02:26;;;;;;;24.27;4.40;;;19.70;65.30;;;;;;7905643;28;20300;-50
2022/03/26 17:06:11;;;;;;;10.00;4.05;;;19.70;65.40;;;;;;7903361;28;20184;-47
2022/03/26 17:09:57;;;;;;;14.45;4.60;;;19.70;65.60;;;;;;7907290;28;20180;-48
2022/03/26 17:13:42;;;;;;;11.50;3.90;;;19.70;65.70;;;;;;7934291;28;20207;-48
2022/03/26 17:17:28;;;;;;;12.43;4.57;;;19.70;65.90;;;;;;7913504;28;20196;-47
2022/03/26 17:21:14;;;;;;;13.07;4.10;;;19.70;65.80;;;;;;7903697;28;20189;-50
2022/03/26 17:25:02;;;;;;;19.70;5.10;;;19.70;65.80;;;;;;7904057;28;20208;-48
2022/03/26 17:28:48;;;;;;;10.65;4.30;;;19.60;65.90;;;;;;7903525;28;20165;-49
2022/03/26 17:32:33;;;;;;;19.75;6.38;;;19.60;66.00;;;;;;7925194;28;20211;-53
2022/03/26 17:36:20;;;;;;;22.13;7.82;;;19.60;66.00;;;;;;7934886;28;20168;-47
2022/03/26 17:40:06;;;;;;;17.83;6.03;;;19.60;66.00;;;;;;7909659;28;20184;-50
2022/03/26 17:43:51;;;;;;;20.48;6.82;;;19.60;66.10;;;;;;7902954;28;20216;-49
2022/03/26 17:47:38;;;;;;;17.20;6.40;;;19.60;66.10;;;;;;7902275;28;20303;-49
2022/03/26 17:51:24;;;;;;;14.15;6.28;;;19.60;66.10;;;;;;7902190;28;20337;-49
2022/03/26 17:55:09;;;;;;;13.13;6.38;;;19.60;66.10;;;;;;7902835;28;20196;-47
2022/03/26 17:58:55;;;;;;;15.43;6.32;;;19.60;66.20;;;;;;7902562;28;20172;-48
2022/03/26 18:02:40;;;;;;;17.08;5.85;;;19.60;66.30;;;;;;7904931;28;20234;-48
2022/03/26 18:06:26;;;;;;;21.67;6.85;;;19.60;66.40;;;;;;7910171;28;20168;-50
2022/03/26 18:10:11;;;;;;;20.60;6.80;;;19.60;66.40;;;;;;7904345;28;20559;-47
2022/03/26 18:13:59;;;;;;;12.77;5.82;;;19.60;66.30;;;;;;7901886;28;20747;-49
2022/03/26 18:17:45;;;;;;;25.92;6.57;;;19.60;66.20;;;;;;7902013;28;20543;-49
2022/03/26 18:21:30;;;;;;;14.27;5.55;;;19.50;66.00;;;;;;7901355;28;20203;-51
2022/03/26 18:25:16;;;;;;;20.10;5.93;;;19.60;66.20;;;;;;7901680;28;20558;-50
2022/03/26 18:29:02;;;;;;;16.45;6.50;;;19.60;66.10;;;;;;7904877;28;20169;-56
2022/03/26 18:32:47;;;;;;;21.85;6.05;;;19.60;66.20;;;;;;7902152;28;20200;-48
2022/03/26 18:36:33;;;;;;;13.75;5.90;;;19.50;66.20;;;;;;7901592;28;20180;-49
2022/03/26 18:40:18;;;;;;;12.02;5.05;;;19.60;66.30;;;;;;7901258;28;20179;-52
2022/03/26 18:44:04;;;;;;;15.10;5.55;;;19.60;66.20;;;;;;7901170;28;20216;-51
2022/03/26 18:47:50;;;;;;;24.50;6.63;;;19.60;66.20;;;;;;7901046;28;20631;-48
2022/03/26 18:51:36;;;;;;;22.08;6.57;;;19.50;66.20;;;;;;7900118;28;20184;-51
2022/03/26 18:55:21;;;;;;;20.55;5.82;;;19.50;66.20;;;;;;7901392;28;20674;-50
2022/03/26 18:59:08;;;;;;;14.82;6.55;;;19.50;66.20;;;;;;7901247;28;20678;-48
2022/03/26 19:02:54;;;;;;;23.40;6.53;;;19.50;66.20;;;;;;7901274;28;20208;-49
2022/03/26 19:06:39;;;;;;;23.02;6.22;;;19.50;66.20;;;;;;7929804;28;20172;-54
2022/03/26 19:10:25;;;;;;;29.13;6.75;;;19.50;66.20;;;;;;7924093;28;20657;-50
2022/03/26 19:14:11;;;;;;;40.60;6.50;;;19.50;66.30;;;;;;7900054;28;20203;-52
2022/03/26 19:17:57;;;;;;;31.83;7.53;;;19.50;66.60;;;;;;7899973;28;20184;-49
2022/03/26 19:21:42;;;;;;;38.88;7.60;;;19.50;66.70;;;;;;7904807;28;20177;-49
2022/03/26 19:25:31;;;;;;;24.90;7.07;;;19.50;66.50;;;;;;7902475;28;20288;-51
2022/03/26 19:33:20;;;;;;;26.63;7.50;;;19.50;66.30;;;;;;7900013;28;20231;-49
2022/03/26 19:37:06;;;;;;;24.38;7.45;;;19.50;66.20;;;;;;7911178;28;20233;-49